Time;durP1;ratioP1;P1;durP2;ratioP2;P2;SDS_P1;SDS_P2;PMS_P1;PMS_P2;Temp;Humidity;BMP_temperature;BMP_pressure;BME280_temperature;BME280_humidity;BME280_pressure;Samples;Min_cycle;Max_cycle;Signal;HPM_P1;HPM_P2
2022/08/16 00:00:17;;;;;;;4.40;1.80;;;18.20;32.50;;;;;;5030555;28;45873;-67
2022/08/16 00:02:43;;;;;;;3.43;1.63;;;18.20;32.70;;;;;;5033623;28;46391;-68
2022/08/16 00:05:11;;;;;;;3.30;1.60;;;18.20;32.90;;;;;;5029198;28;48298;-67
2022/08/16 00:07:37;;;;;;;3.37;1.87;;;18.20;32.20;;;;;;5030958;28;46739;-67
2022/08/16 00:10:05;;;;;;;4.90;2.10;;;18.20;32.90;;;;;;5030410;28;46529;-67
2022/08/16 00:12:30;;;;;;;4.77;1.93;;;18.20;32.90;;;;;;5031124;28;46371;-67
2022/08/16 00:14:59;;;;;;;3.13;1.73;;;18.20;32.90;;;;;;5032140;28;47130;-67
2022/08/16 00:17:26;;;;;;;3.23;1.90;;;18.20;32.30;;;;;;5027719;28;46582;-68
2022/08/16 00:19:53;;;;;;;2.57;1.53;;;18.20;32.90;;;;;;5038029;28;46674;-68
2022/08/16 00:22:18;;;;;;;3.43;2.20;;;18.20;33.00;;;;;;5034975;28;46635;-68
2022/08/16 00:24:44;;;;;;;3.30;1.70;;;18.10;33.20;;;;;;5035055;28;46391;-67
2022/08/16 00:27:10;;;;;;;3.23;1.73;;;18.10;32.60;;;;;;5033724;28;46507;-68
2022/08/16 00:29:35;;;;;;;3.33;1.80;;;18.00;33.60;;;;;;5034301;28;45820;-68
2022/08/16 00:32:04;;;;;;;3.20;1.90;;;18.00;33.70;;;;;;5034956;28;46465;-68
2022/08/16 00:34:30;;;;;;;2.93;1.77;;;17.90;33.80;;;;;;5033359;28;47466;-68
2022/08/16 00:36:55;;;;;;;4.30;1.93;;;17.80;33.30;;;;;;5033071;28;45829;-67
2022/08/16 00:39:21;;;;;;;3.87;1.77;;;17.80;34.30;;;;;;5035121;28;46369;-67
2022/08/16 00:41:49;;;;;;;3.37;1.80;;;17.70;34.40;;;;;;5031868;28;46646;-67
2022/08/16 00:44:19;;;;;;;4.47;1.87;;;17.70;34.80;;;;;;5035708;28;46397;-68
2022/08/16 00:46:54;;;;;;;3.83;2.27;;;17.60;34.20;;;;;;5033793;28;46338;-68
2022/08/16 00:49:21;;;;;;;2.90;1.83;;;17.50;35.20;;;;;;5036295;28;46392;-67
2022/08/16 00:51:49;;;;;;;4.00;1.90;;;17.50;35.40;;;;;;5033140;28;45906;-67
2022/08/16 00:54:14;;;;;;;3.70;1.70;;;17.40;35.60;;;;;;5031215;28;48364;-68
2022/08/16 00:56:45;;;;;;;4.70;2.20;;;17.30;35.10;;;;;;5031921;28;45788;-67
2022/08/16 00:59:13;;;;;;;4.20;1.80;;;17.30;36.10;;;;;;5034397;28;46697;-67
2022/08/16 01:01:39;;;;;;;4.10;1.80;;;17.30;36.10;;;;;;5030807;28;46641;-68
2022/08/16 01:04:06;;;;;;;3.20;1.93;;;17.30;36.20;;;;;;5032365;28;47649;-67
2022/08/16 01:06:32;;;;;;;3.50;1.80;;;17.20;35.50;;;;;;5032814;28;46601;-67
2022/08/16 01:09:00;;;;;;;3.20;1.67;;;17.10;36.50;;;;;;5033702;28;46290;-67
2022/08/16 01:11:26;;;;;;;4.20;2.30;;;17.10;36.60;;;;;;5031416;28;46542;-68
2022/08/16 01:13:57;;;;;;;2.60;1.63;;;17.00;36.90;;;;;;5033838;28;46044;-67
2022/08/16 01:16:26;;;;;;;4.13;1.60;;;16.80;36.10;;;;;;5030020;28;46469;-67
2022/08/16 01:19:25;;;;;;;3.07;1.93;;;16.80;37.20;;;;;;5032617;28;46419;-68
2022/08/16 01:22:46;;;;;;;3.57;1.90;;;16.70;37.80;;;;;;5026384;28;46681;-68
2022/08/16 01:25:19;;;;;;;4.10;2.00;;;16.60;38.00;;;;;;4996088;28;46161;-68
2022/08/16 01:27:51;;;;;;;3.30;1.70;;;16.60;36.80;;;;;;5023209;28;46401;-67
2022/08/16 01:30:24;;;;;;;4.83;1.90;;;16.60;37.60;;;;;;5030318;28;46422;-67
2022/08/16 01:32:51;;;;;;;4.07;1.90;;;16.60;37.70;;;;;;5033854;28;46687;-67
2022/08/16 01:35:37;;;;;;;3.43;1.60;;;16.60;37.70;;;;;;5031771;28;47170;-68
2022/08/16 01:38:27;;;;;;;4.13;1.90;;;16.50;36.90;;;;;;5028177;28;46387;-68
2022/08/16 01:41:01;;;;;;;4.40;2.00;;;16.50;38.10;;;;;;5031031;28;46434;-67
2022/08/16 01:43:26;;;;;;;3.10;1.73;;;16.50;37.90;;;;;;5032621;28;46487;-67
2022/08/16 01:45:55;;;;;;;3.47;1.80;;;16.30;37.20;;;;;;5032289;28;47247;-68
2022/08/16 01:48:24;;;;;;;3.43;1.70;;;16.30;38.20;;;;;;5031584;28;46472;-67
2022/08/16 01:50:51;;;;;;;4.23;1.90;;;16.30;38.20;;;;;;5029487;28;46483;-68
2022/08/16 01:53:17;;;;;;;5.90;2.43;;;16.10;37.60;;;;;;5027742;28;46430;-67
2022/08/16 01:55:44;;;;;;;3.60;1.80;;;16.10;38.50;;;;;;5035203;28;46541;-67
2022/08/16 01:58:12;;;;;;;3.20;1.90;;;16.00;37.60;;;;;;5032701;28;45943;-67
2022/08/16 02:00:39;;;;;;;4.10;1.80;;;15.90;38.80;;;;;;5032637;28;46438;-67
2022/08/16 02:03:04;;;;;;;4.80;2.20;;;15.90;38.90;;;;;;5032335;28;46750;-67
2022/08/16 02:05:30;;;;;;;4.60;1.87;;;15.90;39.00;;;;;;5034095;28;46454;-67
2022/08/16 02:07:57;;;;;;;3.87;2.00;;;15.80;38.30;;;;;;5029409;28;46610;-67
2022/08/16 02:10:23;;;;;;;4.23;2.30;;;15.80;39.30;;;;;;5033066;28;46427;-67
2022/08/16 02:12:48;;;;;;;7.30;1.83;;;15.80;38.40;;;;;;5032220;28;45864;-67
2022/08/16 02:15:15;;;;;;;4.20;1.80;;;15.80;39.30;;;;;;5033724;28;46295;-67
2022/08/16 02:17:42;;;;;;;8.63;2.20;;;15.70;38.70;;;;;;5033254;28;46501;-67
2022/08/16 02:20:08;;;;;;;3.40;1.80;;;15.70;39.60;;;;;;5032093;28;46744;-68
2022/08/16 02:22:35;;;;;;;3.60;2.20;;;15.60;39.70;;;;;;5034443;28;46525;-67
2022/08/16 02:25:02;;;;;;;3.77;2.40;;;15.60;39.60;;;;;;5032745;28;46647;-68
2022/08/16 02:27:27;;;;;;;3.87;2.27;;;15.60;39.00;;;;;;5030136;28;46509;-67
2022/08/16 02:29:53;;;;;;;3.37;2.00;;;15.60;39.90;;;;;;5035567;28;46241;-67
2022/08/16 02:32:18;;;;;;;5.70;2.13;;;15.40;40.00;;;;;;5031569;28;46448;-67
2022/08/16 02:34:44;;;;;;;3.50;1.97;;;15.40;40.20;;;;;;5032865;28;47115;-67
2022/08/16 02:37:10;;;;;;;3.20;1.97;;;15.40;39.50;;;;;;5031131;28;46334;-67
2022/08/16 02:39:36;;;;;;;4.23;2.33;;;15.40;40.50;;;;;;5028247;28;46333;-67
2022/08/16 02:42:02;;;;;;;8.00;2.60;;;15.40;40.30;;;;;;5033899;28;46675;-67
2022/08/16 02:44:30;;;;;;;3.83;1.97;;;15.40;40.40;;;;;;5031283;28;47114;-67
2022/08/16 02:46:56;;;;;;;4.77;2.20;;;15.40;39.90;;;;;;5028698;28;46506;-67
2022/08/16 02:49:22;;;;;;;3.13;1.90;;;15.30;40.80;;;;;;5031491;28;46464;-68
2022/08/16 02:51:47;;;;;;;3.00;1.97;;;15.30;40.90;;;;;;5034019;28;46859;-67
2022/08/16 02:54:13;;;;;;;4.50;2.20;;;15.20;41.00;;;;;;5033898;28;47350;-67
2022/08/16 02:56:40;;;;;;;5.20;2.03;;;15.10;40.20;;;;;;5028909;28;46561;-67
2022/08/16 02:59:06;;;;;;;3.97;2.00;;;15.10;41.30;;;;;;5028474;28;46461;-67
2022/08/16 03:01:33;;;;;;;6.33;2.07;;;15.10;41.30;;;;;;5033692;28;46546;-68
2022/08/16 03:04:00;;;;;;;3.50;2.10;;;15.00;41.20;;;;;;5030619;28;46224;-68
2022/08/16 03:06:26;;;;;;;4.77;1.90;;;15.00;40.60;;;;;;5035166;28;45802;-69
2022/08/16 03:08:52;;;;;;;3.57;2.10;;;15.00;41.60;;;;;;5031620;28;46512;-68
2022/08/16 03:11:18;;;;;;;7.90;2.37;;;15.00;41.50;;;;;;5031703;28;46441;-68
2022/08/16 03:13:50;;;;;;;3.63;2.27;;;15.00;41.50;;;;;;5031576;28;46973;-68
2022/08/16 03:16:17;;;;;;;5.60;2.17;;;15.00;40.50;;;;;;5029938;28;46449;-69
2022/08/16 03:18:42;;;;;;;3.60;1.97;;;15.00;41.60;;;;;;5030687;28;45884;-69
2022/08/16 03:21:08;;;;;;;3.50;2.20;;;14.90;41.50;;;;;;5029908;28;46433;-68
2022/08/16 03:23:35;;;;;;;3.33;1.87;;;14.90;41.50;;;;;;5032572;28;46431;-68
2022/08/16 03:26:01;;;;;;;4.40;2.17;;;14.80;40.90;;;;;;5029432;28;46338;-66
2022/08/16 03:28:26;;;;;;;3.93;1.90;;;14.80;41.60;;;;;;5031585;28;46506;-67
2022/08/16 03:30:52;;;;;;;4.40;2.17;;;14.80;41.70;;;;;;5032618;28;46382;-68
2022/08/16 03:33:18;;;;;;;3.40;2.10;;;14.80;41.60;;;;;;5032398;28;46461;-66
2022/08/16 03:35:44;;;;;;;5.73;2.33;;;14.90;41.50;;;;;;5031794;28;45847;-66
2022/08/16 03:38:12;;;;;;;3.53;2.30;;;14.90;40.50;;;;;;5030723;28;46450;-67
2022/08/16 03:40:38;;;;;;;4.20;2.00;;;14.90;41.60;;;;;;5027403;28;46540;-67
2022/08/16 03:43:06;;;;;;;6.33;2.20;;;14.90;41.70;;;;;;5029441;28;46626;-67
2022/08/16 03:45:33;;;;;;;3.67;2.23;;;14.90;42.00;;;;;;5031981;28;46300;-66
2022/08/16 03:48:01;;;;;;;5.63;2.53;;;14.80;41.00;;;;;;5029154;28;46359;-66
2022/08/16 03:50:27;;;;;;;6.97;2.50;;;14.80;41.90;;;;;;5032901;28;46378;-66
2022/08/16 03:52:53;;;;;;;4.20;2.40;;;14.70;41.90;;;;;;5036143;28;46711;-66
2022/08/16 03:55:19;;;;;;;3.73;1.90;;;14.60;41.70;;;;;;5034788;28;45980;-66
2022/08/16 03:57:44;;;;;;;3.90;2.30;;;14.70;41.10;;;;;;5031034;28;46446;-66
2022/08/16 04:00:18;;;;;;;4.67;2.03;;;14.70;42.00;;;;;;5035360;28;46510;-66
2022/08/16 04:02:44;;;;;;;3.13;1.93;;;14.70;41.70;;;;;;5034880;28;46759;-66
2022/08/16 04:05:12;;;;;;;4.43;2.60;;;14.70;41.60;;;;;;5034726;28;46406;-66
2022/08/16 04:07:38;;;;;;;3.67;1.97;;;14.60;41.10;;;;;;5035756;28;45732;-66
2022/08/16 04:10:06;;;;;;;5.57;2.30;;;14.60;42.00;;;;;;5032307;28;46440;-66
2022/08/16 04:12:31;;;;;;;4.23;2.60;;;14.60;42.20;;;;;;5033251;28;48140;-66
2022/08/16 04:14:57;;;;;;;4.57;2.40;;;14.60;42.40;;;;;;5032819;28;46410;-66
2022/08/16 04:17:22;;;;;;;5.47;2.30;;;14.60;41.60;;;;;;5032123;28;45858;-66
2022/08/16 04:19:49;;;;;;;3.77;2.20;;;14.60;42.60;;;;;;5031962;28;46399;-66
2022/08/16 04:22:15;;;;;;;9.20;2.93;;;14.60;42.60;;;;;;5035715;28;47029;-66
2022/08/16 04:24:41;;;;;;;5.87;2.30;;;14.70;42.60;;;;;;5036390;28;45827;-66
2022/08/16 04:27:07;;;;;;;4.97;2.80;;;14.70;41.70;;;;;;5033918;28;46337;-66
2022/08/16 04:29:33;;;;;;;5.60;2.63;;;14.70;42.70;;;;;;5032431;28;46312;-66
2022/08/16 04:31:58;;;;;;;7.80;2.40;;;14.60;42.70;;;;;;5033411;28;46381;-66
2022/08/16 04:34:27;;;;;;;4.37;2.73;;;14.60;42.70;;;;;;5031898;28;45803;-66
2022/08/16 04:36:53;;;;;;;4.60;2.50;;;14.70;41.60;;;;;;5033047;28;46372;-66
2022/08/16 04:39:18;;;;;;;3.90;2.10;;;14.70;42.70;;;;;;5032656;28;46391;-66
2022/08/16 04:41:44;;;;;;;5.83;2.50;;;14.80;42.60;;;;;;5031612;28;46691;-66
2022/08/16 04:44:10;;;;;;;5.20;2.50;;;14.90;42.10;;;;;;5032406;28;46371;-66
2022/08/16 04:46:36;;;;;;;4.00;2.70;;;15.10;40.80;;;;;;5034779;28;46328;-66
2022/08/16 04:49:01;;;;;;;3.40;2.10;;;15.20;41.70;;;;;;5035284;28;46477;-66
2022/08/16 04:51:27;;;;;;;3.93;2.37;;;15.30;41.70;;;;;;5036113;28;46778;-66
2022/08/16 04:53:52;;;;;;;4.73;2.70;;;15.40;41.80;;;;;;5033075;28;45831;-66
2022/08/16 04:56:19;;;;;;;5.30;2.40;;;15.50;40.60;;;;;;5031640;28;46354;-66
2022/08/16 04:58:45;;;;;;;5.00;2.63;;;15.50;41.60;;;;;;5032669;28;46611;-66
2022/08/16 05:01:10;;;;;;;5.60;3.20;;;15.60;41.60;;;;;;5034804;28;46481;-66
2022/08/16 05:03:36;;;;;;;6.10;2.90;;;15.70;41.50;;;;;;5031496;28;46368;-66
2022/08/16 05:06:02;;;;;;;6.03;2.67;;;16.50;39.80;;;;;;5033421;28;46623;-66
2022/08/16 05:08:28;;;;;;;3.50;2.57;;;16.70;40.80;;;;;;5031743;28;46573;-66
2022/08/16 05:10:54;;;;;;;7.33;2.47;;;17.60;39.90;;;;;;5028614;28;46849;-66
2022/08/16 05:13:20;;;;;;;5.57;2.63;;;18.40;38.20;;;;;;5067699;28;46351;-66
2022/08/16 05:15:47;;;;;;;4.50;2.50;;;;;;;;;;5032943;28;46510;-66
2022/08/16 05:18:13;;;;;;;3.63;1.93;;;20.10;33.20;;;;;;5032701;28;46358;-66
2022/08/16 05:20:39;;;;;;;6.80;2.33;;;20.80;33.50;;;;;;5036797;28;46569;-66
2022/08/16 05:23:05;;;;;;;4.83;2.30;;;21.40;31.70;;;;;;5033491;28;46418;-66
2022/08/16 05:25:30;;;;;;;3.50;2.40;;;22.00;29.90;;;;;;5031712;28;46441;-66
2022/08/16 05:27:58;;;;;;;4.57;2.33;;;22.60;27.10;;;;;;5030429;28;45886;-66
2022/08/16 05:30:24;;;;;;;4.80;2.33;;;22.90;27.30;;;;;;5032904;28;47155;-66
2022/08/16 05:32:50;;;;;;;5.30;2.60;;;23.30;26.00;;;;;;5031792;28;46412;-66
2022/08/16 05:35:17;;;;;;;3.83;2.40;;;23.70;25.00;;;;;;5033602;28;46447;-66
2022/08/16 05:37:43;;;;;;;5.90;2.20;;;24.10;23.30;;;;;;5036303;28;46485;-66
2022/08/16 05:40:10;;;;;;;4.50;2.40;;;24.40;24.10;;;;;;5033522;28;46759;-67
2022/08/16 05:42:36;;;;;;;5.20;2.20;;;24.70;23.10;;;;;;5033159;28;46600;-67
2022/08/16 05:45:04;;;;;;;3.23;2.27;;;25.00;21.90;;;;;;5033995;28;46443;-67
2022/08/16 05:47:29;;;;;;;4.47;1.83;;;25.40;19.30;;;;;;5030214;28;45981;-67
2022/08/16 05:49:55;;;;;;;3.30;2.00;;;25.60;19.50;;;;;;5034797;28;46542;-66
2022/08/16 05:52:20;;;;;;;3.23;2.23;;;25.80;18.70;;;;;;5032623;28;46419;-67
2022/08/16 05:54:46;;;;;;;3.60;2.17;;;26.10;17.90;;;;;;5033708;28;46571;-67
2022/08/16 05:57:12;;;;;;;4.03;2.23;;;26.40;16.20;;;;;;5034285;28;45860;-67
2022/08/16 05:59:37;;;;;;;3.43;2.10;;;26.50;16.70;;;;;;5036432;28;46351;-67
2022/08/16 06:02:04;;;;;;;3.60;2.40;;;26.70;15.80;;;;;;5028353;28;46386;-67
2022/08/16 06:04:31;;;;;;;5.47;2.00;;;26.90;15.80;;;;;;5034596;28;46399;-67
2022/08/16 06:06:56;;;;;;;3.93;2.50;;;27.00;13.90;;;;;;5030190;28;46015;-67
2022/08/16 06:09:23;;;;;;;3.77;2.30;;;27.00;14.30;;;;;;5031217;28;46309;-67
2022/08/16 06:11:48;;;;;;;5.30;1.83;;;27.20;13.70;;;;;;5033422;28;46296;-67
2022/08/16 06:14:14;;;;;;;5.40;1.90;;;27.50;12.90;;;;;;5033293;28;45773;-66
2022/08/16 06:16:40;;;;;;;3.70;2.37;;;27.50;11.20;;;;;;5029774;28;46463;-66
2022/08/16 06:19:05;;;;;;;3.40;2.50;;;27.60;11.90;;;;;;5033461;28;46476;-66
2022/08/16 06:21:31;;;;;;;3.27;1.93;;;27.70;11.60;;;;;;5031561;28;46497;-65
2022/08/16 06:23:57;;;;;;;3.47;1.90;;;27.70;11.70;;;;;;5035153;28;46347;-66
2022/08/16 06:26:22;;;;;;;3.50;2.20;;;27.90;9.90;;;;;;5031614;28;46779;-66
2022/08/16 06:28:48;;;;;;;3.43;2.00;;;27.90;10.60;;;;;;5032875;28;46350;-66
2022/08/16 06:31:15;;;;;;;3.80;2.27;;;27.80;9.90;;;;;;5030689;28;46318;-66
2022/08/16 06:33:42;;;;;;;4.30;2.00;;;28.00;9.70;;;;;;5032824;28;45805;-66
2022/08/16 06:36:08;;;;;;;5.37;2.10;;;26.60;11.80;;;;;;5030520;28;46531;-67
2022/08/16 06:38:35;;;;;;;4.27;2.27;;;26.30;12.80;;;;;;5028669;28;46518;-67
2022/08/16 06:41:03;;;;;;;3.13;2.03;;;25.40;14.80;;;;;;5034859;28;46545;-66
2022/08/16 06:43:28;;;;;;;3.93;2.43;;;24.90;15.40;;;;;;5033505;28;46388;-67
2022/08/16 06:45:54;;;;;;;4.67;2.03;;;26.20;10.90;;;;;;5030929;28;46449;-67
2022/08/16 06:48:20;;;;;;;5.53;2.20;;;26.20;11.60;;;;;;5031461;28;47047;-67
2022/08/16 06:50:50;;;;;;;6.80;2.60;;;26.90;10.50;;;;;;5034378;28;46482;-67
2022/08/16 06:53:16;;;;;;;7.00;2.87;;;27.30;9.60;;;;;;5034882;28;46804;-67
2022/08/16 06:55:43;;;;;;;5.30;2.20;;;27.60;8.90;;;;;;5033630;28;46123;-67
2022/08/16 06:58:09;;;;;;;3.47;2.03;;;27.40;8.20;;;;;;5030755;28;46468;-67
2022/08/16 07:00:36;;;;;;;4.67;2.43;;;26.10;12.00;;;;;;5034463;28;46463;-67
2022/08/16 07:03:01;;;;;;;6.23;2.30;;;25.10;14.70;;;;;;5032281;28;46490;-67
2022/08/16 07:05:30;;;;;;;3.60;2.00;;;24.50;15.70;;;;;;5033582;28;46334;-67
2022/08/16 07:07:57;;;;;;;4.77;2.10;;;24.20;16.30;;;;;;5032014;28;47005;-67
2022/08/16 07:10:24;;;;;;;6.13;2.60;;;24.00;17.60;;;;;;5034733;28;46457;-67
2022/08/16 07:12:50;;;;;;;7.60;2.60;;;23.90;18.30;;;;;;5034381;28;46519;-67
2022/08/16 07:15:19;;;;;;;3.80;2.37;;;23.90;18.30;;;;;;5032236;28;46435;-66
2022/08/16 07:17:45;;;;;;;4.17;2.10;;;24.10;17.60;;;;;;5033841;28;47361;-67
2022/08/16 07:20:12;;;;;;;3.57;2.17;;;24.10;18.60;;;;;;5028491;28;45858;-67
2022/08/16 07:22:40;;;;;;;4.70;2.47;;;24.20;18.50;;;;;;5032239;28;46348;-66
2022/08/16 07:25:09;;;;;;;6.13;3.07;;;24.30;18.40;;;;;;5032201;28;46554;-66
2022/08/16 07:27:34;;;;;;;4.73;2.60;;;24.40;17.60;;;;;;5028464;28;47062;-67
2022/08/16 07:30:00;;;;;;;7.23;2.30;;;24.40;18.40;;;;;;5033712;28;46500;-66
2022/08/16 07:32:27;;;;;;;4.90;2.60;;;24.50;18.20;;;;;;5033973;28;46609;-66
2022/08/16 07:34:52;;;;;;;5.80;2.93;;;24.50;18.00;;;;;;5031070;28;46588;-67
2022/08/16 07:37:19;;;;;;;5.93;2.47;;;24.50;17.00;;;;;;5026807;28;48282;-66
2022/08/16 07:39:44;;;;;;;10.97;3.07;;;24.50;17.80;;;;;;5034418;28;46342;-67
2022/08/16 07:42:11;;;;;;;5.07;3.03;;;24.60;17.50;;;;;;5032404;28;46420;-67
2022/08/16 07:44:36;;;;;;;5.20;2.50;;;24.80;17.30;;;;;;5032106;28;46502;-67
2022/08/16 07:47:02;;;;;;;11.53;3.13;;;24.90;16.40;;;;;;5030250;28;46114;-67
2022/08/16 07:49:27;;;;;;;5.43;2.90;;;25.00;16.90;;;;;;5028859;28;46699;-66
2022/08/16 07:51:53;;;;;;;4.43;2.70;;;25.00;16.50;;;;;;5029074;28;46454;-67
2022/08/16 07:54:19;;;;;;;9.10;3.50;;;25.10;16.60;;;;;;5031821;28;46394;-67
2022/08/16 07:56:44;;;;;;;9.03;3.30;;;25.20;15.80;;;;;;5027215;28;47261;-66
2022/08/16 07:59:10;;;;;;;6.87;3.77;;;25.30;16.40;;;;;;5028507;28;46374;-66
2022/08/16 08:01:37;;;;;;;8.27;2.90;;;25.20;16.20;;;;;;5032922;28;46352;-65
2022/08/16 08:04:03;;;;;;;6.37;2.90;;;25.20;16.40;;;;;;5031806;28;46667;-67
2022/08/16 08:06:31;;;;;;;9.70;2.70;;;25.50;14.90;;;;;;5032185;28;47222;-67
2022/08/16 08:08:58;;;;;;;4.33;2.60;;;25.60;15.70;;;;;;5033877;28;46390;-66
2022/08/16 08:11:24;;;;;;;14.10;2.90;;;25.80;15.30;;;;;;5031840;28;46343;-67
2022/08/16 08:13:52;;;;;;;6.23;3.23;;;25.80;15.30;;;;;;5028490;28;46633;-67
2022/08/16 08:16:20;;;;;;;6.63;2.63;;;25.80;14.40;;;;;;5028046;28;46383;-67
2022/08/16 08:18:46;;;;;;;5.37;2.90;;;25.80;15.30;;;;;;5029205;28;46502;-67
2022/08/16 08:21:11;;;;;;;6.60;3.43;;;25.60;15.20;;;;;;5033464;28;46324;-67
2022/08/16 08:23:37;;;;;;;6.70;3.13;;;25.70;15.20;;;;;;5034340;28;46325;-67
2022/08/16 08:26:04;;;;;;;7.80;3.63;;;25.80;14.50;;;;;;5032275;28;47028;-67
2022/08/16 08:28:30;;;;;;;6.33;2.90;;;25.90;15.30;;;;;;5033509;28;46398;-67
2022/08/16 08:30:57;;;;;;;11.77;3.33;;;26.00;15.40;;;;;;5030722;28;46370;-67
2022/08/16 08:33:22;;;;;;;8.23;3.60;;;26.00;15.10;;;;;;5032755;28;46469;-67
2022/08/16 08:35:48;;;;;;;5.20;3.23;;;;;;;;;;5029723;28;48065;-66
2022/08/16 08:38:15;;;;;;;6.17;3.07;;;26.10;14.00;;;;;;5032159;28;46415;-66
2022/08/16 08:40:41;;;;;;;10.73;3.13;;;26.20;15.10;;;;;;5039333;28;46327;-67
2022/08/16 08:43:10;;;;;;;7.47;3.03;;;26.20;15.00;;;;;;5035772;28;46303;-67
2022/08/16 08:45:36;;;;;;;8.70;3.30;;;26.20;14.90;;;;;;5036006;28;46314;-67
2022/08/16 08:48:02;;;;;;;10.83;3.17;;;26.20;13.70;;;;;;5034510;28;46500;-67
2022/08/16 08:50:28;;;;;;;5.17;3.03;;;26.20;14.60;;;;;;5030987;28;46430;-67
2022/08/16 08:52:54;;;;;;;5.27;2.97;;;26.20;14.40;;;;;;5034860;28;45966;-66
2022/08/16 08:55:21;;;;;;;7.27;2.93;;;26.30;14.20;;;;;;5033250;28;46430;-67
2022/08/16 08:57:48;;;;;;;4.13;2.60;;;26.40;13.50;;;;;;5038416;28;46149;-66
2022/08/16 09:00:16;;;;;;;4.60;2.57;;;26.40;14.30;;;;;;5034366;28;46370;-65
2022/08/16 09:02:43;;;;;;;15.57;3.33;;;26.40;13.70;;;;;;5033853;28;46410;-67
2022/08/16 09:05:09;;;;;;;4.93;2.90;;;26.30;13.80;;;;;;5032312;28;46200;-67
2022/08/16 09:07:37;;;;;;;5.23;2.93;;;26.40;12.50;;;;;;5028821;28;45820;-66
2022/08/16 09:10:05;;;;;;;10.70;2.80;;;26.40;13.40;;;;;;5032738;28;46336;-67
2022/08/16 09:12:31;;;;;;;5.00;3.00;;;26.30;13.40;;;;;;5036715;28;46344;-66
2022/08/16 09:14:57;;;;;;;9.67;3.57;;;26.50;13.30;;;;;;5032183;28;46580;-67
2022/08/16 09:17:23;;;;;;;6.10;2.90;;;26.50;12.30;;;;;;5035803;28;46441;-66
2022/08/16 09:19:50;;;;;;;4.70;2.87;;;26.40;13.40;;;;;;5032193;28;46368;-67
2022/08/16 09:22:16;;;;;;;4.37;2.53;;;26.50;13.40;;;;;;5037386;28;46616;-67
2022/08/16 09:24:41;;;;;;;9.40;3.30;;;26.60;13.30;;;;;;5032187;28;46367;-67
2022/08/16 09:27:07;;;;;;;6.50;3.00;;;26.80;12.30;;;;;;5028787;28;46592;-67
2022/08/16 09:29:32;;;;;;;11.33;3.00;;;26.90;13.10;;;;;;5035509;28;46327;-67
2022/08/16 09:31:58;;;;;;;7.43;3.60;;;26.80;12.60;;;;;;5034749;28;45992;-67
2022/08/16 09:34:24;;;;;;;12.73;3.20;;;26.90;12.80;;;;;;5033469;28;47300;-67
2022/08/16 09:36:50;;;;;;;7.00;3.50;;;27.10;11.50;;;;;;5032562;28;46679;-67
2022/08/16 09:39:17;;;;;;;6.47;3.50;;;27.00;12.40;;;;;;5031836;28;46544;-66
2022/08/16 09:41:48;;;;;;;8.50;2.83;;;26.90;12.10;;;;;;5029982;28;46371;-67
2022/08/16 09:44:15;;;;;;;7.00;2.90;;;27.10;12.00;;;;;;5033296;28;47311;-67
2022/08/16 09:46:41;;;;;;;7.93;2.80;;;27.40;11.00;;;;;;5031949;28;46430;-67
2022/08/16 09:49:07;;;;;;;6.53;3.23;;;27.50;11.60;;;;;;5031906;28;46434;-67
2022/08/16 09:51:32;;;;;;;10.27;3.20;;;27.50;10.90;;;;;;5036453;28;46355;-67
2022/08/16 09:53:58;;;;;;;5.93;2.60;;;27.50;10.70;;;;;;5031170;28;46410;-67
2022/08/16 09:56:29;;;;;;;5.67;3.00;;;27.40;10.00;;;;;;5028380;28;46394;-67
2022/08/16 09:58:56;;;;;;;5.90;3.20;;;27.40;10.60;;;;;;5031989;28;46449;-67
2022/08/16 10:01:22;;;;;;;7.50;3.10;;;27.40;10.60;;;;;;5036701;28;46295;-66
2022/08/16 10:03:47;;;;;;;7.40;3.23;;;27.50;10.60;;;;;;5029829;28;46412;-66
2022/08/16 10:06:13;;;;;;;7.40;3.03;;;27.70;9.40;;;;;;5038246;28;46398;-66
2022/08/16 10:08:38;;;;;;;7.20;2.83;;;27.70;9.90;;;;;;5036245;28;46377;-66
2022/08/16 10:13:48;;;;;;;6.23;2.70;;;27.90;9.40;;;;;;5034589;28;46256;-68
2022/08/16 10:16:14;;;;;;;7.50;3.33;;;28.00;8.70;;;;;;5028040;28;46514;-68
2022/08/16 10:18:41;;;;;;;5.07;2.93;;;28.10;9.40;;;;;;5030977;28;46826;-68
2022/08/16 10:21:08;;;;;;;6.10;3.27;;;28.10;9.20;;;;;;5033760;28;46629;-68
2022/08/16 10:23:33;;;;;;;4.67;2.80;;;28.00;9.20;;;;;;5031174;28;47204;-67
2022/08/16 10:25:59;;;;;;;4.17;2.47;;;28.00;8.10;;;;;;5034812;28;46429;-66
2022/08/16 10:28:27;;;;;;;6.17;3.13;;;27.90;8.70;;;;;;5034156;28;46336;-68
2022/08/16 10:30:52;;;;;;;4.80;2.83;;;28.00;8.40;;;;;;5038921;28;46397;-68
2022/08/16 10:33:18;;;;;;;4.50;2.60;;;28.00;8.50;;;;;;5035455;28;46432;-67
2022/08/16 10:35:44;;;;;;;5.83;3.20;;;28.30;9.70;;;;;;5037599;28;46580;-68
2022/08/16 10:38:12;;;;;;;7.77;2.93;;;28.10;7.00;;;;;;5032699;28;46445;-68
2022/08/16 10:40:39;;;;;;;4.67;2.87;;;27.90;8.10;;;;;;5028055;28;46394;-66
2022/08/16 10:43:05;;;;;;;5.73;3.20;;;27.90;8.30;;;;;;5028716;28;46556;-66
2022/08/16 10:45:31;;;;;;;6.13;3.27;;;27.90;8.20;;;;;;5027111;28;46453;-69
2022/08/16 10:47:58;;;;;;;5.60;2.57;;;28.20;7.20;;;;;;5031630;28;46445;-69
2022/08/16 10:50:25;;;;;;;8.07;2.50;;;28.30;7.90;;;;;;5031958;28;46717;-69
2022/08/16 10:52:52;;;;;;;5.90;2.90;;;28.40;7.40;;;;;;5031968;28;46214;-68
2022/08/16 10:55:18;;;;;;;5.90;2.73;;;28.40;7.10;;;;;;5032891;28;46405;-68
2022/08/16 10:57:44;;;;;;;5.17;3.10;;;28.20;5.60;;;;;;5031103;28;46481;-69
2022/08/16 11:00:13;;;;;;;6.47;2.60;;;28.00;6.80;;;;;;5031187;28;46544;-68
2022/08/16 11:02:40;;;;;;;3.97;2.70;;;28.10;6.80;;;;;;5028598;28;47141;-70
2022/08/16 11:05:10;;;;;;;6.53;2.93;;;28.30;6.80;;;;;;5027470;28;46414;-67
2022/08/16 11:07:41;;;;;;;6.30;3.23;;;28.50;5.60;;;;;;5029393;28;46461;-70
2022/08/16 11:10:08;;;;;;;6.43;3.07;;;28.50;6.30;;;;;;5040434;28;46393;-68
2022/08/16 11:12:33;;;;;;;4.10;2.50;;;28.50;5.80;;;;;;5031742;28;46475;-69
2022/08/16 11:14:59;;;;;;;5.60;3.07;;;28.60;6.10;;;;;;5031573;28;46550;-68
2022/08/16 11:17:25;;;;;;;7.33;2.57;;;28.60;5.50;;;;;;5030858;28;46375;-69
2022/08/16 11:19:51;;;;;;;4.67;2.77;;;28.60;6.20;;;;;;5034506;28;45917;-67
2022/08/16 11:22:18;;;;;;;4.77;2.90;;;28.60;5.40;;;;;;5033084;28;46429;-69
2022/08/16 11:24:44;;;;;;;4.37;2.60;;;28.50;5.30;;;;;;5027000;28;46446;-68
2022/08/16 11:27:13;;;;;;;4.83;2.17;;;28.60;4.50;;;;;;5032238;28;46376;-66
2022/08/16 11:29:39;;;;;;;7.03;2.83;;;28.60;5.50;;;;;;5027737;28;45977;-68
2022/08/16 11:32:05;;;;;;;6.30;2.70;;;28.60;5.40;;;;;;5034596;28;47183;-67
2022/08/16 11:34:31;;;;;;;7.40;3.43;;;28.60;5.50;;;;;;5032831;28;46442;-67
2022/08/16 11:36:58;;;;;;;6.53;2.83;;;28.80;4.60;;;;;;5029915;28;46545;-67
2022/08/16 11:39:23;;;;;;;6.10;2.70;;;28.90;5.60;;;;;;5029425;28;46396;-67
2022/08/16 11:41:49;;;;;;;9.23;3.37;;;29.00;5.60;;;;;;5031171;28;46365;-67
2022/08/16 11:44:15;;;;;;;5.30;2.70;;;29.10;5.70;;;;;;5036020;28;46764;-66
2022/08/16 11:46:41;;;;;;;3.93;2.10;;;29.00;4.70;;;;;;5033797;28;46411;-67
2022/08/16 11:49:06;;;;;;;8.13;2.93;;;29.10;5.70;;;;;;5029679;28;46347;-67
2022/08/16 11:51:32;;;;;;;6.00;3.27;;;29.00;5.60;;;;;;5034153;28;46176;-67
2022/08/16 11:53:58;;;;;;;4.13;2.93;;;29.00;5.60;;;;;;5032162;28;46315;-66
2022/08/16 11:56:24;;;;;;;6.73;2.73;;;29.20;4.80;;;;;;5034903;28;46382;-67
2022/08/16 11:58:49;;;;;;;4.63;2.37;;;29.20;6.10;;;;;;5033176;28;46605;-67
2022/08/16 12:01:15;;;;;;;5.20;2.80;;;29.30;4.70;;;;;;5031123;28;47298;-67
2022/08/16 12:03:41;;;;;;;5.10;2.77;;;29.30;4.40;;;;;;5030454;28;46374;-67
2022/08/16 12:06:14;;;;;;;4.80;2.50;;;29.10;4.20;;;;;;5028673;28;46418;-67
2022/08/16 12:08:42;;;;;;;7.60;2.30;;;29.10;4.60;;;;;;5029414;28;46585;-67
2022/08/16 12:11:09;;;;;;;4.07;2.67;;;29.20;4.80;;;;;;5030466;28;46316;-67
2022/08/16 12:13:35;;;;;;;4.73;2.80;;;29.40;4.50;;;;;;5036938;28;46377;-65
2022/08/16 12:16:01;;;;;;;5.57;2.60;;;29.80;3.20;;;;;;5036479;28;46417;-68
2022/08/16 12:18:27;;;;;;;4.60;2.20;;;29.80;2.50;;;;;;5031110;28;46439;-67
2022/08/16 12:20:53;;;;;;;6.23;2.57;;;29.80;3.30;;;;;;5035115;28;48445;-68
2022/08/16 12:23:19;;;;;;;5.20;2.70;;;29.90;3.00;;;;;;5034431;28;46730;-68
2022/08/16 12:25:45;;;;;;;4.33;2.30;;;29.70;2.50;;;;;;5032458;28;46472;-67
2022/08/16 12:28:10;;;;;;;4.50;2.57;;;29.70;1.80;;;;;;5033809;28;46465;-68
2022/08/16 12:30:39;;;;;;;4.03;2.60;;;29.60;2.80;;;;;;5034066;28;46603;-69
2022/08/16 12:33:06;;;;;;;7.43;2.80;;;29.40;2.90;;;;;;5033517;28;46401;-67
2022/08/16 12:35:34;;;;;;;4.60;2.30;;;29.40;3.00;;;;;;5032639;28;46427;-69
2022/08/16 12:38:00;;;;;;;6.50;2.43;;;29.40;1.80;;;;;;5033900;28;46469;-67
2022/08/16 12:40:31;;;;;;;5.87;2.40;;;29.60;2.70;;;;;;5036395;28;47339;-67
2022/08/16 12:42:59;;;;;;;6.60;2.70;;;29.70;2.60;;;;;;5033981;28;46336;-66
2022/08/16 12:45:29;;;;;;;4.50;2.67;;;29.70;2.60;;;;;;5033414;28;45902;-67
2022/08/16 12:50:39;;;;;;;5.93;2.90;;;29.70;2.70;;;;;;5032776;28;45882;-68
2022/08/16 12:53:05;;;;;;;6.47;2.60;;;29.60;2.70;;;;;;5034511;28;46682;-68